Главная страница
METAR-TAF:

METAR-TAF

Аэропорты :

Яунде, Камерун

широта: 03-50N, долгота: 011-31E, высота над уровнем моря: 751 м

Текущие метеонаблюдения

Эта сводка был подготовлена 47 минут назад, в 22:00 UTC
Температура 22°C
Влажность 100%
Давление 1020 hPa
Видимость: 7000 м
Рассеянная облачность на высоте 1000 фута
небольшая облачность на высоте 2000 фута, Кучево-дождевые.
небольшой дождь

METAR: FKYS 222200Z /////KT 7000 -RA BKN010 FEW020CB 22/22 Q1020

Время: 23:47 (22:47 UTC)

Прогноз

Эта сводка был подготовлена 5 часа и 47 минут назад, в 17:00 UTC
Прогноз действительный с 22-го 18 UTC до 23-го 18 UTC
Ветер 5 Узел от западный-юго-западный
Видимость: 8000 м
Рассеянная облачность на высоте 1300 фута
изменения
С 22-го 20 UTC до 22-го 2 UTC
Рассеянная облачность на высоте 600 фута
изменения
С 23-го 08 UTC до 23-го 10 UTC
Рассеянная облачность на высоте 1600 фута

TAF: FKYS 221700Z 2218/2318 25005KT 8000 BKN013 BECMG 2220/222 BKN006 BECMG 2308/2310 BKN016

Метеонаблюдения и прогнозы для более 4000 аэропортов (сводки METAR и TAF).

Имеющиеся станции представлены на карте желтыми и красными точками.

Чтобы увидеть название станции, наведите на нее мышь.

Затем щелкните, чтобы увидеть метеонаблюдения и метеопрогнозы.

Управление картой: чтобы увеличить масштаб, щелкните зеленые кнопки с черным крестиком; чтобы уменьшить масштаб, щелкните зеленую кнопку с тире; для просмотра соседних карт щелкайте зеленые стрелки.


METAR-TAF: